Time;durP1;ratioP1;P1;durP2;ratioP2;P2;SDS_P1;SDS_P2;PMS_P1;PMS_P2;Temp;Humidity;BMP_temperature;BMP_pressure;BME280_temperature;BME280_humidity;BME280_pressure;Samples;Min_cycle;Max_cycle;Signal;HPM_P1;HPM_P2
2023/08/20 00:00:15;;;;;;;9.88;2.78;;;17.10;99.90;;;;;;5014791;28;20056;-88
2023/08/20 00:02:42;;;;;;;11.50;2.90;;;17.10;99.90;;;;;;5015089;28;20129;-88
2023/08/20 00:05:09;;;;;;;11.00;2.95;;;17.10;99.90;;;;;;5047419;28;20037;-88
2023/08/20 00:07:35;;;;;;;10.15;2.80;;;17.10;99.90;;;;;;5030649;28;20264;-89
2023/08/20 00:10:04;;;;;;;6.85;2.38;;;17.10;99.90;;;;;;5021981;28;20120;-88
2023/08/20 00:12:30;;;;;;;7.55;2.42;;;17.00;99.90;;;;;;5047825;28;20032;-88
2023/08/20 00:15:06;;;;;;;9.65;2.60;;;16.90;99.90;;;;;;5031447;28;20068;-89
2023/08/20 00:17:36;;;;;;;8.27;2.78;;;16.90;99.90;;;;;;5031180;28;20047;-89
2023/08/20 00:20:09;;;;;;;8.15;2.13;;;16.80;99.90;;;;;;5031476;28;20076;-89
2023/08/20 00:22:36;;;;;;;8.57;2.40;;;16.70;99.90;;;;;;5047588;28;20506;-89
2023/08/20 00:25:05;;;;;;;10.23;2.45;;;16.70;99.90;;;;;;5047816;28;20120;-89
2023/08/20 00:27:31;;;;;;;8.32;2.50;;;16.70;99.90;;;;;;5032027;28;20072;-89
2023/08/20 00:29:57;;;;;;;9.23;2.17;;;16.60;99.90;;;;;;5010527;28;20048;-89
2023/08/20 00:32:23;;;;;;;9.73;2.70;;;16.50;99.90;;;;;;5028972;28;20056;-90
2023/08/20 00:34:49;;;;;;;9.35;2.63;;;16.50;99.90;;;;;;5014660;28;20041;-89
2023/08/20 00:37:14;;;;;;;9.20;2.55;;;16.50;99.90;;;;;;4998124;28;20510;-89
2023/08/20 00:39:40;;;;;;;6.32;2.25;;;16.50;99.90;;;;;;5031032;28;20049;-89
2023/08/20 00:42:07;;;;;;;9.77;2.63;;;16.60;99.90;;;;;;5031165;28;20284;-89
2023/08/20 00:44:33;;;;;;;10.73;2.70;;;16.60;99.90;;;;;;5031011;28;20087;-90
2023/08/20 00:47:04;;;;;;;11.38;2.60;;;16.60;99.90;;;;;;5047333;28;20089;-89
2023/08/20 00:49:31;;;;;;;9.27;2.78;;;16.70;99.90;;;;;;5014696;28;20055;-89
2023/08/20 00:51:58;;;;;;;10.02;2.72;;;16.70;99.90;;;;;;5047256;28;20490;-89
2023/08/20 00:54:25;;;;;;;15.02;3.15;;;16.70;99.90;;;;;;5030517;28;20521;-89
2023/08/20 00:56:51;;;;;;;8.98;2.85;;;16.70;99.90;;;;;;5047313;28;20118;-90
2023/08/20 00:59:17;;;;;;;10.07;2.75;;;16.70;99.90;;;;;;5013925;28;20045;-90
2023/08/20 01:01:44;;;;;;;15.30;3.33;;;16.70;99.90;;;;;;5030389;28;20109;-90
2023/08/20 01:04:09;;;;;;;10.48;3.13;;;16.80;99.90;;;;;;5029967;28;20083;-90
2023/08/20 01:06:53;;;;;;;10.38;3.28;;;16.70;99.90;;;;;;5030317;28;20068;-89
2023/08/20 01:09:31;;;;;;;9.73;2.85;;;16.70;99.90;;;;;;5029611;28;20540;-89
2023/08/20 01:12:02;;;;;;;7.70;2.60;;;16.70;99.90;;;;;;5030282;28;20044;-88
2023/08/20 01:14:27;;;;;;;10.90;3.00;;;16.70;99.90;;;;;;5030238;28;20315;-89
2023/08/20 01:16:53;;;;;;;9.95;3.25;;;16.70;99.90;;;;;;5013819;28;20044;-89
2023/08/20 01:19:21;;;;;;;9.68;2.80;;;16.70;99.90;;;;;;5013834;28;20221;-90
2023/08/20 01:22:21;;;;;;;9.27;2.90;;;16.60;99.90;;;;;;5014052;28;20048;-90
2023/08/20 01:24:55;;;;;;;11.43;2.90;;;16.60;99.90;;;;;;5046814;28;20080;-89
2023/08/20 01:27:51;;;;;;;9.27;2.95;;;16.60;99.90;;;;;;5029910;28;20112;-89
2023/08/20 01:30:19;;;;;;;10.68;2.90;;;16.60;99.90;;;;;;5046172;28;20141;-89
2023/08/20 01:32:46;;;;;;;9.52;2.70;;;16.50;99.90;;;;;;5030296;28;20482;-89
2023/08/20 01:35:15;;;;;;;9.68;2.70;;;16.50;99.90;;;;;;5016023;28;20079;-90
2023/08/20 01:37:41;;;;;;;9.02;2.60;;;16.50;99.90;;;;;;5050065;28;20141;-89
2023/08/20 01:40:10;;;;;;;13.55;2.90;;;16.50;99.90;;;;;;5033417;28;20127;-89
2023/08/20 01:42:37;;;;;;;9.02;2.78;;;16.50;99.90;;;;;;5027977;28;20389;-89
2023/08/20 01:45:04;;;;;;;10.23;2.80;;;16.50;99.90;;;;;;5029899;28;20557;-90
2023/08/20 01:47:30;;;;;;;10.15;2.88;;;16.50;99.90;;;;;;5050392;28;20033;-89
2023/08/20 01:49:55;;;;;;;8.65;2.92;;;16.50;99.90;;;;;;5033132;28;20458;-90
2023/08/20 01:52:21;;;;;;;10.50;3.00;;;16.50;99.90;;;;;;5033263;28;20041;-89
2023/08/20 01:54:48;;;;;;;9.43;2.97;;;16.50;99.90;;;;;;5033010;28;20036;-89
2023/08/20 01:57:14;;;;;;;9.45;3.20;;;16.50;99.90;;;;;;5033431;28;20041;-89
2023/08/20 01:59:40;;;;;;;10.48;3.45;;;16.50;99.90;;;;;;5016419;28;20041;-89
2023/08/20 02:02:06;;;;;;;11.18;3.25;;;16.50;99.90;;;;;;5033039;28;20053;-89
2023/08/20 02:04:32;;;;;;;11.50;3.45;;;16.50;99.90;;;;;;5016451;28;20068;-89
2023/08/20 02:06:58;;;;;;;9.65;3.10;;;16.50;99.90;;;;;;5033345;28;20041;-89
2023/08/20 02:09:24;;;;;;;9.93;3.28;;;16.50;99.90;;;;;;5016114;28;20124;-89
2023/08/20 02:11:50;;;;;;;11.23;3.38;;;16.50;99.90;;;;;;5049708;28;20041;-90
2023/08/20 02:14:16;;;;;;;10.35;3.70;;;16.50;99.90;;;;;;5016708;28;20083;-89
2023/08/20 02:16:42;;;;;;;10.45;3.92;;;16.50;99.90;;;;;;5016529;28;20079;-89
2023/08/20 02:19:08;;;;;;;9.75;3.40;;;16.50;99.90;;;;;;5032725;28;20052;-89
2023/08/20 02:21:34;;;;;;;13.27;3.72;;;16.50;99.90;;;;;;5032993;28;20043;-89
2023/08/20 02:24:00;;;;;;;11.52;3.40;;;16.50;99.90;;;;;;5049645;28;20064;-89
2023/08/20 02:26:26;;;;;;;10.38;3.50;;;16.50;99.90;;;;;;5016110;28;20502;-89
2023/08/20 02:28:51;;;;;;;12.80;3.85;;;16.50;99.90;;;;;;5016296;28;20073;-89
2023/08/20 02:31:17;;;;;;;11.05;4.05;;;16.40;99.90;;;;;;5032414;28;20068;-89
2023/08/20 02:33:43;;;;;;;12.43;3.90;;;16.40;99.90;;;;;;5032797;28;20040;-88
2023/08/20 02:36:09;;;;;;;12.18;3.63;;;16.40;99.90;;;;;;5049025;28;20467;-88
2023/08/20 02:38:35;;;;;;;10.68;3.53;;;16.40;99.90;;;;;;5016319;28;20118;-89
2023/08/20 02:41:04;;;;;;;13.70;4.15;;;16.30;99.90;;;;;;5032228;28;20036;-89
2023/08/20 02:43:30;;;;;;;10.77;3.92;;;16.30;99.90;;;;;;5032145;28;20049;-89
2023/08/20 02:45:56;;;;;;;9.50;3.63;;;16.30;99.90;;;;;;5015677;28;20029;-88
2023/08/20 02:48:26;;;;;;;14.98;4.32;;;16.30;99.90;;;;;;5032274;28;20122;-89
2023/08/20 02:50:53;;;;;;;12.80;4.13;;;16.30;99.90;;;;;;5032000;28;20087;-89
2023/08/20 02:53:19;;;;;;;10.73;3.60;;;16.20;99.90;;;;;;5015985;28;20188;-87
2023/08/20 02:55:45;;;;;;;11.43;4.07;;;16.20;99.90;;;;;;5015593;28;20561;-90
2023/08/20 02:58:10;;;;;;;11.00;3.95;;;16.20;99.90;;;;;;5016007;28;20037;-90
2023/08/20 03:00:36;;;;;;;11.82;3.75;;;16.20;99.90;;;;;;4999615;28;20111;-90
2023/08/20 03:03:07;;;;;;;10.10;4.00;;;16.20;99.90;;;;;;5015620;28;20152;-90
2023/08/20 03:05:33;;;;;;;14.73;4.55;;;16.20;99.90;;;;;;5016421;28;20063;-90
2023/08/20 03:07:59;;;;;;;13.20;4.03;;;16.20;99.90;;;;;;5032217;28;20045;-89
2023/08/20 03:10:29;;;;;;;10.38;4.00;;;16.30;99.90;;;;;;5015844;28;20572;-89
2023/08/20 03:12:55;;;;;;;13.95;4.53;;;16.30;99.90;;;;;;5032089;28;20044;-89
2023/08/20 03:15:21;;;;;;;11.10;4.07;;;16.30;99.90;;;;;;5048477;28;20041;-89
2023/08/20 03:17:47;;;;;;;10.70;4.28;;;16.30;99.90;;;;;;5031915;28;20041;-89
2023/08/20 03:20:12;;;;;;;13.23;4.18;;;16.30;99.90;;;;;;5015298;28;20045;-89
2023/08/20 03:22:38;;;;;;;12.90;4.65;;;16.30;99.90;;;;;;5032034;28;20041;-91
2023/08/20 03:25:05;;;;;;;13.30;4.55;;;16.40;99.90;;;;;;5012057;28;20175;-89
2023/08/20 03:27:31;;;;;;;11.25;4.38;;;16.40;99.90;;;;;;5010671;28;20038;-88
2023/08/20 03:29:57;;;;;;;13.02;4.70;;;16.40;99.90;;;;;;5015217;28;20541;-89
2023/08/20 03:32:23;;;;;;;11.18;4.60;;;16.40;99.90;;;;;;4998794;28;20045;-90
2023/08/20 03:34:49;;;;;;;12.23;4.45;;;16.30;99.90;;;;;;5015243;28;20067;-89
2023/08/20 03:37:15;;;;;;;10.52;4.60;;;16.30;99.90;;;;;;5031304;28;20049;-89
2023/08/20 03:39:40;;;;;;;13.70;4.88;;;16.30;99.90;;;;;;5014978;28;20459;-89
2023/08/20 03:42:06;;;;;;;12.13;4.35;;;16.30;99.90;;;;;;4998893;28;20041;-88
2023/08/20 03:44:32;;;;;;;13.82;4.47;;;16.30;99.90;;;;;;5047782;28;20049;-88
2023/08/20 03:46:58;;;;;;;12.38;4.47;;;16.30;99.90;;;;;;5015263;28;20051;-88
2023/08/20 03:49:24;;;;;;;12.70;4.43;;;16.20;99.90;;;;;;5014786;28;20045;-88
2023/08/20 03:51:49;;;;;;;14.13;3.92;;;16.20;99.90;;;;;;5015521;28;20267;-88
2023/08/20 03:54:16;;;;;;;13.63;4.10;;;16.20;99.90;;;;;;5014626;28;20044;-88
2023/08/20 03:56:41;;;;;;;10.57;4.38;;;16.20;99.90;;;;;;5030919;28;20478;-87
2023/08/20 03:59:07;;;;;;;11.68;4.35;;;16.20;99.90;;;;;;5047514;28;20056;-89
2023/08/20 04:01:33;;;;;;;10.70;4.32;;;16.10;99.90;;;;;;5031841;28;20033;-89
2023/08/20 04:03:59;;;;;;;13.27;4.40;;;16.10;99.90;;;;;;5014652;28;20040;-88
2023/08/20 04:06:25;;;;;;;11.50;4.50;;;16.10;99.90;;;;;;5031323;28;20029;-88
2023/08/20 04:08:51;;;;;;;11.88;4.18;;;16.10;99.90;;;;;;5012697;28;20091;-88
2023/08/20 04:11:16;;;;;;;9.93;3.80;;;16.00;99.90;;;;;;5031275;28;20116;-88
2023/08/20 04:13:43;;;;;;;14.77;4.38;;;16.00;99.90;;;;;;5014795;28;20056;-88
2023/08/20 04:16:09;;;;;;;9.50;4.07;;;16.00;99.90;;;;;;5047845;28;20044;-88
2023/08/20 04:18:35;;;;;;;12.27;4.05;;;16.10;99.90;;;;;;5030988;28;20090;-88
2023/08/20 04:21:01;;;;;;;10.13;3.67;;;16.00;99.90;;;;;;5015010;28;20045;-89
2023/08/20 04:23:27;;;;;;;13.63;4.63;;;16.10;99.90;;;;;;5014972;28;20560;-88
2023/08/20 04:25:52;;;;;;;10.63;4.03;;;16.10;99.90;;;;;;5014591;28;20267;-89
2023/08/20 04:28:18;;;;;;;10.48;4.22;;;16.10;99.90;;;;;;4998717;28;20037;-88
2023/08/20 04:30:44;;;;;;;9.85;4.32;;;16.10;99.90;;;;;;5030890;28;20501;-89
2023/08/20 04:33:10;;;;;;;11.55;4.10;;;16.10;99.90;;;;;;5014951;28;20045;-89
2023/08/20 04:35:36;;;;;;;12.45;4.47;;;16.10;99.90;;;;;;5031388;28;20342;-88
2023/08/20 04:38:02;;;;;;;18.02;4.72;;;16.10;99.90;;;;;;5031151;28;20148;-89
2023/08/20 04:40:28;;;;;;;13.48;4.70;;;16.10;99.90;;;;;;5047563;28;20041;-89
2023/08/20 04:42:54;;;;;;;10.43;4.38;;;16.10;99.90;;;;;;4998494;28;20063;-87
2023/08/20 04:45:20;;;;;;;10.55;4.22;;;16.10;99.90;;;;;;4998034;28;20041;-87
2023/08/20 04:47:46;;;;;;;11.10;4.65;;;16.10;99.90;;;;;;5014615;28;20037;-88
2023/08/20 04:50:13;;;;;;;11.20;3.80;;;16.10;99.90;;;;;;5047131;28;20394;-89
2023/08/20 04:52:39;;;;;;;12.27;4.05;;;16.10;99.90;;;;;;5031306;28;20041;-88
2023/08/20 04:55:06;;;;;;;12.35;4.30;;;16.10;99.90;;;;;;5014301;28;20511;-89
2023/08/20 04:57:32;;;;;;;12.15;3.85;;;16.10;99.90;;;;;;5014411;28;20112;-89
2023/08/20 04:59:57;;;;;;;12.48;3.95;;;16.10;99.90;;;;;;5014362;28;20240;-89
2023/08/20 05:02:23;;;;;;;11.68;4.10;;;16.10;99.90;;;;;;5014215;28;20101;-89
2023/08/20 05:04:49;;;;;;;13.18;4.68;;;16.10;99.90;;;;;;5014396;28;20045;-88
2023/08/20 05:07:15;;;;;;;11.95;4.43;;;16.10;99.90;;;;;;4998051;28;20103;-88
2023/08/20 05:09:40;;;;;;;10.90;3.92;;;16.20;99.90;;;;;;4999354;28;20044;-88
2023/08/20 05:12:07;;;;;;;11.70;4.10;;;16.20;99.90;;;;;;5034558;28;20041;-88
2023/08/20 05:14:33;;;;;;;10.35;4.50;;;16.20;99.90;;;;;;5034777;28;20037;-89
2023/08/20 05:16:58;;;;;;;13.85;4.28;;;16.20;99.90;;;;;;5002112;28;20389;-89
2023/08/20 05:19:24;;;;;;;9.68;4.13;;;16.20;99.90;;;;;;5001407;28;20498;-89
2023/08/20 05:21:50;;;;;;;12.23;4.45;;;16.20;99.90;;;;;;5035032;28;20063;-89
2023/08/20 05:24:15;;;;;;;13.45;3.97;;;16.20;99.90;;;;;;5034467;28;20037;-89
2023/08/20 05:26:41;;;;;;;10.77;3.78;;;16.30;99.90;;;;;;5034546;28;20036;-89
2023/08/20 05:29:07;;;;;;;11.60;3.95;;;16.30;99.90;;;;;;5033922;28;20104;-89
2023/08/20 05:31:34;;;;;;;9.85;3.70;;;16.30;99.90;;;;;;5034125;28;20096;-88
2023/08/20 05:33:59;;;;;;;10.63;4.10;;;16.40;99.90;;;;;;5017490;28;20048;-89
2023/08/20 05:36:25;;;;;;;10.70;4.10;;;16.40;99.90;;;;;;5017526;28;20047;-89
2023/08/20 05:38:50;;;;;;;12.68;3.88;;;16.40;99.90;;;;;;5014043;28;20062;-89
2023/08/20 05:41:16;;;;;;;10.43;3.88;;;16.50;99.90;;;;;;5043883;28;20037;-89
2023/08/20 05:43:42;;;;;;;14.00;4.30;;;16.50;99.90;;;;;;5017725;28;20041;-88
2023/08/20 05:46:08;;;;;;;9.45;3.88;;;16.60;99.90;;;;;;5033831;28;20500;-87
2023/08/20 05:48:33;;;;;;;12.75;4.18;;;16.60;99.90;;;;;;5033854;28;20037;-87
2023/08/20 05:50:59;;;;;;;9.65;3.85;;;16.70;99.90;;;;;;5017557;28;20071;-88
2023/08/20 05:53:25;;;;;;;12.07;4.13;;;16.80;99.90;;;;;;5033660;28;20037;-88
2023/08/20 05:55:50;;;;;;;10.73;4.25;;;16.80;99.90;;;;;;5001098;28;20044;-89
2023/08/20 05:58:16;;;;;;;10.35;3.75;;;16.90;99.90;;;;;;5001141;28;20062;-89
2023/08/20 06:00:42;;;;;;;10.85;4.25;;;17.00;99.90;;;;;;5033862;28;20044;-89
2023/08/20 06:03:08;;;;;;;11.60;4.07;;;17.00;99.90;;;;;;5017356;28;20040;-89
2023/08/20 06:05:34;;;;;;;12.40;3.90;;;17.10;99.90;;;;;;5000534;28;20458;-88
2023/08/20 06:08:00;;;;;;;11.90;4.00;;;17.20;99.90;;;;;;5050026;28;20029;-88
2023/08/20 06:10:26;;;;;;;13.70;4.20;;;17.30;99.90;;;;;;5016969;28;20037;-88
2023/08/20 06:12:52;;;;;;;12.18;4.47;;;17.30;99.90;;;;;;5050060;28;20048;-88
2023/08/20 06:15:18;;;;;;;11.00;3.40;;;17.40;99.90;;;;;;5016511;28;20506;-88
2023/08/20 06:17:44;;;;;;;11.18;3.70;;;17.50;99.90;;;;;;5000747;28;20047;-88
2023/08/20 06:20:11;;;;;;;13.75;4.05;;;17.60;99.90;;;;;;5000257;28;20321;-88
2023/08/20 06:22:40;;;;;;;12.45;3.97;;;17.70;99.90;;;;;;5033812;28;20402;-88
2023/08/20 06:25:06;;;;;;;10.50;3.60;;;17.70;99.90;;;;;;5033094;28;20418;-89
2023/08/20 06:27:32;;;;;;;13.93;3.97;;;17.80;99.90;;;;;;5033151;28;20051;-88
2023/08/20 06:29:58;;;;;;;9.93;3.88;;;17.90;99.90;;;;;;5016440;28;20045;-88
2023/08/20 06:32:24;;;;;;;10.40;3.60;;;17.70;99.90;;;;;;4999868;28;20068;-89
2023/08/20 06:34:50;;;;;;;8.82;3.55;;;18.00;99.90;;;;;;5016621;28;20116;-89
2023/08/20 06:37:15;;;;;;;13.93;3.92;;;18.10;99.90;;;;;;5049949;28;20481;-89
2023/08/20 06:39:41;;;;;;;11.02;3.70;;;18.20;99.90;;;;;;5016272;28;20398;-89
2023/08/20 06:42:07;;;;;;;10.57;3.58;;;18.30;99.90;;;;;;5016395;28;20044;-89
2023/08/20 06:44:35;;;;;;;9.05;3.20;;;18.40;99.90;;;;;;5049189;28;20045;-88
2023/08/20 06:47:00;;;;;;;12.13;4.25;;;18.50;99.90;;;;;;5016877;28;20033;-89
2023/08/20 06:49:26;;;;;;;12.85;3.60;;;18.50;99.90;;;;;;5049396;28;20033;-88
2023/08/20 06:51:52;;;;;;;10.05;3.58;;;18.60;99.90;;;;;;5033354;28;20552;-88
2023/08/20 06:54:18;;;;;;;10.35;3.28;;;18.80;99.90;;;;;;5032177;28;20072;-88
2023/08/20 06:56:43;;;;;;;9.13;3.05;;;18.80;99.90;;;;;;5032561;28;20171;-89
2023/08/20 06:59:10;;;;;;;10.13;3.10;;;18.90;99.90;;;;;;5015691;28;20052;-87
2023/08/20 07:01:36;;;;;;;10.02;3.53;;;19.10;99.90;;;;;;5032779;28;20079;-89
2023/08/20 07:04:02;;;;;;;15.45;3.42;;;19.20;99.90;;;;;;4999428;28;20077;-88
2023/08/20 07:06:28;;;;;;;12.88;3.42;;;19.30;99.90;;;;;;5015786;28;20041;-89
2023/08/20 07:08:53;;;;;;;8.60;3.08;;;19.40;99.90;;;;;;5031928;28;20041;-87
2023/08/20 07:11:19;;;;;;;13.35;3.47;;;19.50;99.90;;;;;;5015835;28;20459;-88
2023/08/20 07:13:45;;;;;;;12.43;3.20;;;19.60;99.90;;;;;;5032070;28;20072;-88
2023/08/20 07:16:11;;;;;;;11.05;2.90;;;19.60;99.90;;;;;;5032003;28;20051;-88
2023/08/20 07:18:37;;;;;;;10.45;2.83;;;19.70;99.90;;;;;;5032133;28;20077;-88
2023/08/20 07:21:02;;;;;;;10.40;3.00;;;19.80;99.90;;;;;;5031680;28;20390;-88
2023/08/20 07:23:28;;;;;;;11.60;3.08;;;19.90;99.90;;;;;;5015314;28;20053;-89
2023/08/20 07:26:08;;;;;;;9.82;3.03;;;20.00;99.90;;;;;;5015336;28;20040;-89
2023/08/20 07:31:20;;;;;;;11.73;3.05;;;20.20;99.90;;;;;;5033269;28;20061;-87
2023/08/20 07:33:50;;;;;;;13.38;3.03;;;20.40;99.90;;;;;;5014672;28;20044;-88
2023/08/20 07:36:16;;;;;;;12.18;2.83;;;20.40;99.90;;;;;;5047894;28;20033;-88
2023/08/20 07:38:43;;;;;;;11.57;2.45;;;20.50;99.90;;;;;;5040533;28;20599;-88
2023/08/20 07:41:10;;;;;;;8.68;2.42;;;20.60;99.90;;;;;;5031782;28;20069;-88
2023/08/20 07:43:38;;;;;;;11.27;2.55;;;20.70;99.90;;;;;;5048034;28;20079;-88
2023/08/20 07:46:04;;;;;;;9.98;2.60;;;20.70;99.90;;;;;;5014756;28;20512;-87
2023/08/20 07:48:30;;;;;;;8.60;2.55;;;20.80;99.90;;;;;;5031317;28;20116;-88
2023/08/20 07:50:56;;;;;;;11.77;2.60;;;20.90;99.90;;;;;;5014997;28;20175;-88
2023/08/20 07:53:21;;;;;;;9.88;2.35;;;21.00;99.90;;;;;;4998678;28;20037;-88
2023/08/20 07:55:47;;;;;;;9.38;2.45;;;21.10;99.90;;;;;;5015067;28;20036;-88
2023/08/20 07:58:13;;;;;;;10.60;2.67;;;21.20;99.90;;;;;;5031468;28;20037;-89
2023/08/20 08:00:39;;;;;;;9.52;2.40;;;21.20;99.90;;;;;;5030986;28;20162;-89
2023/08/20 08:03:04;;;;;;;9.65;2.47;;;21.30;99.90;;;;;;5011574;28;20053;-89
2023/08/20 08:05:30;;;;;;;14.52;2.88;;;21.40;99.90;;;;;;5028122;28;20130;-89
2023/08/20 08:07:56;;;;;;;9.48;2.60;;;21.50;99.90;;;;;;5011534;28;20087;-89
2023/08/20 08:10:21;;;;;;;10.40;2.20;;;21.60;99.90;;;;;;4997881;28;20542;-88
2023/08/20 08:12:47;;;;;;;11.93;2.70;;;21.60;99.90;;;;;;5014829;28;20040;-88
2023/08/20 08:15:13;;;;;;;10.02;2.33;;;21.70;99.90;;;;;;5014208;28;20120;-88
2023/08/20 08:17:39;;;;;;;8.68;2.10;;;21.80;99.90;;;;;;5031059;28;20088;-89
2023/08/20 08:20:05;;;;;;;7.57;2.10;;;21.80;99.90;;;;;;5030971;28;20374;-88
2023/08/20 08:22:31;;;;;;;12.43;2.83;;;22.00;99.90;;;;;;5047791;28;20037;-88
2023/08/20 08:24:57;;;;;;;11.48;2.45;;;22.10;99.90;;;;;;5030484;28;20128;-88
2023/08/20 08:27:23;;;;;;;10.30;2.15;;;22.10;99.90;;;;;;5047410;28;20044;-89
2023/08/20 08:29:48;;;;;;;9.30;2.40;;;22.20;99.90;;;;;;5014213;28;20048;-89
2023/08/20 08:32:14;;;;;;;7.32;1.95;;;22.30;99.90;;;;;;5014162;28;20101;-89
2023/08/20 08:34:40;;;;;;;7.75;2.00;;;22.40;99.90;;;;;;4998616;28;20483;-89
2023/08/20 08:37:06;;;;;;;8.82;2.30;;;22.50;99.90;;;;;;5011909;28;20037;-89
2023/08/20 08:39:32;;;;;;;9.02;2.00;;;22.50;99.90;;;;;;5009585;28;20037;-88
2023/08/20 08:42:07;;;;;;;9.95;2.13;;;22.60;99.90;;;;;;5015068;28;20045;-88
2023/08/20 08:44:33;;;;;;;9.02;1.92;;;22.70;99.90;;;;;;5034221;28;20043;-88
2023/08/20 08:47:01;;;;;;;11.05;2.28;;;22.70;99.90;;;;;;5002816;28;20033;-86
2023/08/20 08:49:26;;;;;;;7.68;1.75;;;22.80;99.90;;;;;;5034774;28;20041;-89
2023/08/20 08:51:56;;;;;;;10.45;2.03;;;22.90;99.90;;;;;;4999081;28;20403;-87
2023/08/20 08:54:22;;;;;;;6.82;1.45;;;23.00;99.90;;;;;;5025911;28;20167;-86
2023/08/20 08:56:48;;;;;;;6.85;1.60;;;23.00;99.90;;;;;;5018604;28;20546;-88
2023/08/20 08:59:14;;;;;;;7.22;1.77;;;23.10;99.90;;;;;;5034532;28;20056;-88
2023/08/20 09:01:41;;;;;;;6.90;1.52;;;23.00;99.90;;;;;;5034757;28;20060;-88
2023/08/20 09:04:07;;;;;;;10.63;2.03;;;23.00;99.90;;;;;;5034229;28;20065;-88
2023/08/20 09:06:46;;;;;;;8.70;1.85;;;23.10;99.90;;;;;;5018198;28;20044;-88
2023/08/20 09:09:12;;;;;;;8.90;1.90;;;23.20;99.90;;;;;;5034181;28;20560;-87
2023/08/20 09:11:38;;;;;;;9.60;2.05;;;23.30;99.90;;;;;;5051233;28;20049;-88
2023/08/20 09:14:04;;;;;;;5.47;1.45;;;23.20;99.90;;;;;;5050766;28;20064;-87
2023/08/20 09:16:31;;;;;;;9.45;2.00;;;23.20;99.90;;;;;;5050848;28;20078;-88
2023/08/20 09:19:00;;;;;;;8.65;2.10;;;23.30;99.90;;;;;;5050828;28;20048;-87
2023/08/20 09:21:29;;;;;;;5.88;1.70;;;23.40;99.90;;;;;;5034391;28;20203;-88
2023/08/20 09:23:56;;;;;;;7.68;1.50;;;23.50;99.90;;;;;;5034230;28;20067;-86
2023/08/20 09:26:22;;;;;;;8.93;2.03;;;23.50;99.90;;;;;;5050965;28;20372;-87
2023/08/20 09:28:48;;;;;;;6.85;1.60;;;23.50;99.90;;;;;;5017571;28;20043;-87
2023/08/20 09:31:15;;;;;;;7.60;1.60;;;23.60;99.90;;;;;;5033878;28;20056;-87
2023/08/20 09:33:51;;;;;;;6.40;1.40;;;23.50;99.90;;;;;;5034256;28;20040;-87
2023/08/20 09:36:17;;;;;;;7.30;1.95;;;23.50;99.90;;;;;;5034252;28;20463;-86
2023/08/20 09:38:43;;;;;;;8.38;1.80;;;23.50;99.90;;;;;;5033238;28;20069;-88
2023/08/20 09:41:11;;;;;;;7.55;1.90;;;23.60;99.90;;;;;;5017410;28;20065;-87
2023/08/20 09:43:38;;;;;;;7.78;1.90;;;23.60;99.90;;;;;;5050360;28;20040;-88
2023/08/20 09:46:05;;;;;;;6.13;1.70;;;23.70;99.90;;;;;;5034192;28;20378;-89
2023/08/20 09:48:37;;;;;;;9.63;1.90;;;23.80;99.90;;;;;;5034559;28;20433;-88
2023/08/20 09:51:11;;;;;;;7.78;1.88;;;23.90;99.90;;;;;;5050892;28;20407;-86
2023/08/20 09:53:55;;;;;;;7.70;1.92;;;24.10;99.90;;;;;;5050312;28;20040;-88
2023/08/20 09:56:31;;;;;;;7.47;1.60;;;24.10;99.90;;;;;;5032581;28;20611;-86
2023/08/20 09:59:00;;;;;;;7.40;2.13;;;23.90;99.90;;;;;;5050204;28;20061;-86
2023/08/20 10:01:27;;;;;;;6.90;1.80;;;23.90;99.90;;;;;;5033292;28;20113;-86
2023/08/20 10:03:53;;;;;;;7.70;1.80;;;23.60;99.90;;;;;;5050061;28;20048;-88
2023/08/20 10:06:20;;;;;;;9.60;2.05;;;;;;;;;;5033256;28;20056;-86
2023/08/20 10:08:46;;;;;;;8.13;2.10;;;23.70;99.90;;;;;;5033861;28;20048;-86
2023/08/20 10:11:12;;;;;;;10.38;2.03;;;24.20;99.90;;;;;;5033188;28;20118;-87
2023/08/20 10:13:39;;;;;;;7.18;1.70;;;23.90;99.90;;;;;;5033185;28;20453;-87
2023/08/20 10:16:05;;;;;;;8.18;1.92;;;24.20;99.90;;;;;;5016533;28;20499;-88
2023/08/20 10:18:34;;;;;;;7.35;1.85;;;24.30;99.90;;;;;;5050924;28;20029;-88
2023/08/20 10:21:01;;;;;;;8.23;2.03;;;24.50;99.90;;;;;;5049927;28;20091;-87
2023/08/20 10:23:27;;;;;;;6.85;1.60;;;24.40;99.90;;;;;;5016945;28;20441;-86
2023/08/20 10:25:53;;;;;;;8.30;1.77;;;24.60;99.90;;;;;;5032761;28;20040;-86
2023/08/20 10:28:25;;;;;;;10.02;1.77;;;24.70;99.90;;;;;;5032836;28;20041;-86
2023/08/20 10:31:03;;;;;;;7.50;1.60;;;24.70;99.90;;;;;;5033001;28;20136;-86
2023/08/20 10:33:29;;;;;;;8.07;1.75;;;24.50;99.90;;;;;;5049359;28;20153;-87
2023/08/20 10:35:55;;;;;;;7.55;1.60;;;24.30;99.90;;;;;;5000072;28;20126;-88
2023/08/20 10:38:22;;;;;;;8.98;2.05;;;24.30;99.90;;;;;;4999896;28;20041;-86
2023/08/20 10:40:58;;;;;;;4.40;1.40;;;24.40;99.90;;;;;;5049331;28;20120;-86
2023/08/20 10:43:27;;;;;;;5.43;1.50;;;24.20;99.90;;;;;;5004175;28;20044;-86
2023/08/20 10:46:05;;;;;;;6.88;1.73;;;24.20;99.90;;;;;;5032544;28;20041;-87
2023/08/20 10:48:36;;;;;;;6.50;1.73;;;24.30;99.90;;;;;;5032529;28;20072;-86
2023/08/20 10:51:24;;;;;;;8.80;2.08;;;24.40;99.90;;;;;;5032734;28;20098;-88
2023/08/20 10:54:05;;;;;;;6.93;1.83;;;24.50;99.90;;;;;;5032530;28;20033;-87
2023/08/20 10:56:47;;;;;;;6.13;1.60;;;24.70;99.90;;;;;;5048862;28;20048;-87
2023/08/20 10:59:21;;;;;;;8.05;1.77;;;24.70;99.90;;;;;;5032393;28;20186;-86
2023/08/20 11:01:58;;;;;;;9.90;1.83;;;24.70;99.90;;;;;;5016598;28;20041;-86
2023/08/20 11:04:27;;;;;;;9.52;1.73;;;24.70;99.90;;;;;;5032121;28;20120;-87
2023/08/20 11:06:56;;;;;;;4.07;1.38;;;24.70;99.90;;;;;;5016441;28;20041;-87
2023/08/20 11:09:23;;;;;;;6.03;1.40;;;24.80;99.90;;;;;;5031763;28;20371;-85
2023/08/20 11:11:48;;;;;;;9.07;1.95;;;24.80;99.90;;;;;;5049304;28;20125;-85
2023/08/20 11:14:15;;;;;;;8.02;1.70;;;24.90;99.90;;;;;;5032027;28;20681;-87
2023/08/20 11:16:44;;;;;;;5.93;1.60;;;24.90;99.90;;;;;;5032123;28;20493;-87
2023/08/20 11:19:10;;;;;;;4.95;1.52;;;24.90;99.90;;;;;;5032275;28;20383;-89
2023/08/20 11:21:38;;;;;;;6.55;1.75;;;25.00;99.90;;;;;;5032567;28;20048;-87
2023/08/20 11:24:06;;;;;;;5.78;1.77;;;25.20;99.90;;;;;;5031856;28;20278;-88
2023/08/20 11:26:33;;;;;;;6.88;1.50;;;25.10;99.90;;;;;;5015430;28;20040;-88
2023/08/20 11:28:58;;;;;;;5.82;1.63;;;25.10;99.90;;;;;;5031528;28;20048;-88
2023/08/20 11:31:25;;;;;;;5.68;1.70;;;25.10;99.90;;;;;;4998876;28;20049;-87
2023/08/20 11:33:51;;;;;;;6.35;1.52;;;25.10;99.90;;;;;;5031635;28;20051;-87
2023/08/20 11:36:20;;;;;;;7.72;1.70;;;25.10;99.90;;;;;;5015322;28;20033;-86
2023/08/20 11:38:53;;;;;;;6.78;1.42;;;23.80;99.90;;;;;;5015264;28;20036;-86
2023/08/20 11:41:20;;;;;;;7.65;1.80;;;24.80;99.90;;;;;;5015519;28;20347;-86
2023/08/20 11:43:47;;;;;;;6.38;1.73;;;24.70;99.90;;;;;;5015240;28;20063;-85
2023/08/20 11:46:14;;;;;;;9.63;1.80;;;24.70;99.90;;;;;;5015370;28;20041;-86
2023/08/20 11:49:06;;;;;;;6.18;1.50;;;24.10;99.90;;;;;;5048176;28;20033;-86
2023/08/20 11:51:39;;;;;;;6.65;1.55;;;24.90;99.90;;;;;;5048162;28;20052;-87
2023/08/20 11:54:16;;;;;;;8.70;1.85;;;24.90;99.90;;;;;;5047690;28;20126;-86
2023/08/20 11:56:49;;;;;;;6.22;1.58;;;24.90;99.90;;;;;;5031552;28;20287;-87
2023/08/20 11:59:16;;;;;;;7.05;1.60;;;25.10;99.90;;;;;;5031678;28;20120;-87
2023/08/20 12:01:42;;;;;;;7.43;1.52;;;25.10;99.90;;;;;;5047759;28;20052;-87
2023/08/20 12:04:09;;;;;;;6.07;1.40;;;25.20;99.90;;;;;;5014318;28;20044;-88
2023/08/20 12:06:37;;;;;;;8.93;1.65;;;25.20;99.90;;;;;;5047663;28;20037;-86
2023/08/20 12:09:20;;;;;;;4.97;1.33;;;25.10;99.90;;;;;;4998132;28;20040;-87
2023/08/20 12:11:55;;;;;;;7.68;1.50;;;25.50;99.90;;;;;;5040905;28;20037;-86
2023/08/20 12:14:21;;;;;;;6.35;1.50;;;25.50;99.90;;;;;;5014914;28;20099;-85
2023/08/20 12:16:47;;;;;;;5.10;1.35;;;25.50;99.90;;;;;;5015632;28;20094;-85
2023/08/20 12:19:14;;;;;;;6.03;1.65;;;25.80;99.90;;;;;;5014572;28;20040;-85
2023/08/20 12:21:42;;;;;;;7.18;1.60;;;25.40;99.90;;;;;;5031168;28;20041;-86
2023/08/20 12:24:09;;;;;;;7.40;1.27;;;25.50;99.90;;;;;;5014575;28;20379;-87
2023/08/20 12:26:36;;;;;;;7.60;1.58;;;25.50;99.90;;;;;;5031048;28;20037;-86
2023/08/20 12:29:02;;;;;;;5.97;1.60;;;25.70;99.90;;;;;;5014247;28;20470;-86
2023/08/20 12:31:28;;;;;;;7.03;1.40;;;25.60;99.90;;;;;;5030832;28;20183;-87
2023/08/20 12:33:53;;;;;;;7.38;1.50;;;25.70;99.90;;;;;;5047167;28;20110;-87
2023/08/20 12:36:19;;;;;;;6.30;1.25;;;25.70;99.90;;;;;;5014359;28;20044;-87
2023/08/20 12:38:45;;;;;;;3.97;1.27;;;25.60;99.90;;;;;;5013979;28;20029;-86
2023/08/20 12:41:11;;;;;;;5.80;1.30;;;25.30;99.90;;;;;;4997928;28;20129;-88
2023/08/20 12:43:37;;;;;;;7.45;1.55;;;25.30;99.90;;;;;;5030453;28;20040;-86
2023/08/20 12:46:03;;;;;;;4.88;1.50;;;25.40;99.90;;;;;;5030667;28;20048;-86